Print

Print


On Fri, 19 Dec 2008 17:53:03 -0500, roger Klinger <[log in to unmask]>
wrote:

>Great news Scott!  Mid-February is just when things start to get excellent
>around here anyways.

Thanks, Rog.  In other good news, it appears to be absolutely dumping up
there in northern to central VT.  

BTV just put up a 3" in the 1 hour snowfall column.  That's d@mn impressive
considering the forecast was 2-4" yesterday.  

METAR KBTV 192254Z COR 34010KT 1/2SM SN FZFG VV003 M16/M18 A3011 RMK AO2
SLP204 SNINCR 3/9 VIS 1/8V1/2 P0002 T11561178

Note the SNINCR 3/9 which means snow increasing rapidly, 3" last hour, 9" on
the ground.

Any ground reports from up that way?  7" new in 6.5 hours here in Albany, NY.

-Scott

- - - - - - - - - - - - - - - - - - - - - - - - - - - - - - - -
SkiVt-L is brought to you by the University of Vermont.

To unsubscribe, visit http://list.uvm.edu/archives/skivt-l.html